No 31 Takemaru — JG5731 — position and weather

sailwx.info

Track history (hours):
 
Tides and Currents Weather Stations Pressure Air Temp Water Temp Dewpoint Dewpoint Depression Visibility Wind Speed Wind Dir Waves Ship Positions

No 31 Takemaru

Last reported at 2017-Mar-30 17:33 UTC. Time now 2017-Mar-30 18:30 UTC.
Position N 34°39' E 135°28'.

Length 31 m; draft 2.5 m.

Type: Tug. MMSI: 431000439.

Date/timePositionNaut miles runAvg speedWind from/ knotsBaromVisibWave heightAir tempDewpointWater temp
2017-Mar-30 17:33N 34°39' E 135°28'0 0.0
2017-Mar-30 16:34N 34°39' E 135°28'0 0.0
2017-Mar-30 15:32N 34°39' E 135°28'0 0.0
2017-Mar-30 14:32N 34°39' E 135°28'0 0.0
2017-Mar-30 11:15N 34°39' E 135°28'3 4.5
2017-Mar-30 10:33N 34°39' E 135°24'0 0.1
2017-Mar-30 09:34N 34°39' E 135°24'3 1.5
2017-Mar-30 07:22N 34°39' E 135°28'0 0.0
2017-Mar-30 01:24N 34°39' E 135°28'2 2.8
2017-Mar-30 00:33N 34°39' E 135°25'2 1.9
2017-Mar-29 23:34N 34°38' E 135°23'2 1.8
2017-Mar-29 22:34N 34°40' E 135°24'0 0.0
2017-Mar-29 21:33N 34°40' E 135°24'1 0.6
2017-Mar-29 20:33N 34°39' E 135°25'3 0.7
2017-Mar-29 16:27N 34°39' E 135°28'0 0.0
2017-Mar-29 15:33N 34°39' E 135°28'0 0.0
2017-Mar-29 12:14N 34°39' E 135°28'0 0.0
2017-Mar-29 11:19N 34°39' E 135°28'0 0.0
2017-Mar-29 10:34N 34°39' E 135°28'0 0.0
2017-Mar-29 09:25N 34°39' E 135°28'0 0.0
2017-Mar-29 08:30N 34°39' E 135°28'0 0.0
2017-Mar-29 07:33N 34°39' E 135°28'0 0.0
2017-Mar-29 06:33N 34°39' E 135°28'0 0.0
2017-Mar-29 05:31N 34°39' E 135°28'0 0.0
2017-Mar-29 04:22N 34°39' E 135°28'0 0.0
2017-Mar-29 00:29N 34°39' E 135°28'3 3.0
2017-Mar-28 23:33N 34°39' E 135°24'2 1.8
2017-Mar-28 22:33N 34°38' E 135°27'2 1.9
2017-Mar-28 21:33N 34°39' E 135°24'3 2.9
2017-Mar-28 20:34N 34°39' E 135°28'0 0.0
2017-Mar-28 19:34N 34°39' E 135°28'0 0.0
2017-Mar-28 18:33N 34°39' E 135°28'0 0.0
2017-Mar-28 17:33N 34°39' E 135°28'0 0.0
2017-Mar-28 16:34N 34°39' E 135°28'2 2.0
2017-Mar-28 15:33N 34°39' E 135°26'2 0.7
2017-Mar-28 12:33N 34°39' E 135°28'0 0.0
2017-Mar-28 11:33N 34°39' E 135°28'0 0.0
2017-Mar-28 10:33N 34°39' E 135°28'0 0.0
2017-Mar-28 09:12N 34°39' E 135°28'0 0.0
2017-Mar-28 08:21N 34°39' E 135°28'1 0.1
2017-Mar-28 01:33N 34°39' E 135°27'1 0.7
2017-Mar-28 00:33N 34°38' E 135°27'0 0.2
2017-Mar-27 23:33N 34°38' E 135°27'2 1.7
2017-Mar-27 22:33N 34°39' E 135°25'1 1.4
2017-Mar-27 21:33N 34°39' E 135°27'1 0.9
2017-Mar-27 20:28N 34°39' E 135°28'0 0.0
2017-Mar-27 19:30N 34°39' E 135°28'0 0.0
2017-Mar-27 18:33N 34°39' E 135°28'0 0.0
2017-Mar-27 17:31N 34°39' E 135°28'0 0.0
2017-Mar-27 14:17N 34°39' E 135°28'0 0.0
2017-Mar-27 13:33N 34°39' E 135°28'0 0.0
2017-Mar-27 12:31N 34°39' E 135°28'0 0.0
2017-Mar-27 11:33N 34°39' E 135°28'0 0.0
2017-Mar-27 10:33N 34°39' E 135°28'0 0.0
2017-Mar-27 08:32N 34°39' E 135°28'2 1.8
2017-Mar-27 07:33N 34°39' E 135°26'2 2.4
2017-Mar-27 06:33N 34°37' E 135°24'4 0.6
2017-Mar-27 00:21N 34°39' E 135°28'0 0.0
2017-Mar-26 23:33N 34°39' E 135°28'3 2.9
2017-Mar-26 22:33N 34°38' E 135°25'1 0.7
2017-Mar-26 21:33N 34°38' E 135°24'4 3.5
2017-Mar-26 20:34N 34°39' E 135°28'0 0.0
2017-Mar-26 19:27N 34°39' E 135°28'0 0.0
2017-Mar-26 18:32N 34°39' E 135°28'0 0.0
2017-Mar-26 15:27N 34°39' E 135°28'0 0.0
2017-Mar-26 13:08N 34°39' E 135°28'0 0.0
2017-Mar-26 12:33N 34°39' E 135°28'0 0.0
2017-Mar-26 11:33N 34°39' E 135°28'0 0.0
2017-Mar-26 10:31N 34°39' E 135°28'0 0.0
2017-Mar-26 09:28N 34°39' E 135°28'0 0.0
2017-Mar-26 08:33N 34°39' E 135°28'0 0.0
2017-Mar-26 07:27N 34°39' E 135°28'0 0.0
2017-Mar-26 05:11N 34°39' E 135°28'3 4.5
2017-Mar-26 04:33N 34°38' E 135°25'2 1.8
2017-Mar-26 03:33N 34°38' E 135°23'4 1.1
2017-Mar-25 23:27N 34°39' E 135°28'0 0.0
2017-Mar-25 22:32N 34°39' E 135°28'0 0.0
2017-Mar-25 21:33N 34°39' E 135°28'0 0.0
2017-Mar-25 20:31N 34°39' E 135°28'0 0.0
2017-Mar-25 19:30N 34°39' E 135°28'0 0.0
2017-Mar-25 18:27N 34°39' E 135°28'0 0.0
2017-Mar-25 17:33N 34°39' E 135°28'0 0.0
2017-Mar-25 12:09N 34°39' E 135°28'0 0.0
2017-Mar-25 11:32N 34°39' E 135°28'0 0.0
2017-Mar-25 10:32N 34°39' E 135°28'0 0.0
2017-Mar-25 09:34N 34°39' E 135°28'0 0.0
2017-Mar-25 08:31N 34°39' E 135°28'0 0.0
2017-Mar-25 07:33N 34°39' E 135°28'0 0.0
2017-Mar-25 05:20N 34°39' E 135°28'0 0.0
2017-Mar-25 04:26N 34°39' E 135°28'0 0.0
2017-Mar-25 03:25N 34°39' E 135°28'0 0.0
2017-Mar-25 01:32N 34°39' E 135°28'3 2.9
2017-Mar-25 00:34N 34°40' E 135°25'0 0.4
2017-Mar-24 23:33N 34°40' E 135°24'0 0.0
2017-Mar-24 22:33N 34°40' E 135°24'1 0.7
2017-Mar-24 21:33N 34°39' E 135°24'1 1.4
2017-Mar-24 20:33N 34°39' E 135°26'2 1.6
2017-Mar-24 19:28N 34°39' E 135°28'0 0.0
2017-Mar-24 18:23N 34°39' E 135°28'0 0.0
2017-Mar-24 16:25N 34°39' E 135°28'0 0.0
2017-Mar-24 15:34N 34°39' E 135°28'0 0.0
2017-Mar-24 14:26N 34°39' E 135°28'0 0.0
2017-Mar-24 13:17N 34°39' E 135°28'0 0.0
2017-Mar-24 12:14N 34°39' E 135°28'3 4.7
2017-Mar-24 11:33N 34°39' E 135°24'3 0.6
2017-Mar-24 06:16N 34°39' E 135°28'2 2.5
2017-Mar-24 05:33N 34°39' E 135°26'2 0.5
2017-Mar-24 01:30N 34°39' E 135°28'0 0.0
2017-Mar-24 00:31N 34°39' E 135°28'0 0.0
2017-Mar-23 23:33N 34°39' E 135°28'3 2.8
2017-Mar-23 22:33N 34°38' E 135°25'1 1.0
2017-Mar-23 21:34N 34°38' E 135°23'4 3.8
2017-Mar-23 20:34N 34°39' E 135°28'0 0.0
2017-Mar-23 19:33N 34°39' E 135°28'0 0.0
2017-Mar-23 18:23N 34°39' E 135°28'0 0.0
2017-Mar-23 17:33N 34°39' E 135°28'0 0.0
2017-Mar-23 16:33N 34°39' E 135°28'0 0.0
2017-Mar-23 15:33N 34°39' E 135°28'0 0.0
2017-Mar-23 14:27N 34°39' E 135°28'0 0.0
2017-Mar-23 13:08N 34°39' E 135°28'0 0.0
2017-Mar-23 12:34N 34°39' E 135°28'0 0.0
2017-Mar-23 11:31N 34°39' E 135°28'0 0.0
2017-Mar-23 10:33N 34°39' E 135°28'0 0.0
2017-Mar-23 09:33N 34°39' E 135°28'0 0.0
2017-Mar-23 08:20N 34°39' E 135°28'0 0.0
2017-Mar-23 07:15N 34°39' E 135°28'1 2.1
2017-Mar-23 06:33N 34°39' E 135°26'1 0.2
2017-Mar-22 23:25N 34°39' E 135°28'0 0.0
2017-Mar-22 22:26N 34°39' E 135°28'0 0.6
2017-Mar-22 21:33N 34°39' E 135°27'3 2.6
2017-Mar-22 20:33N 34°39' E 135°24'3 1.4
2017-Mar-22 18:21N 34°39' E 135°28'0 0.0
2017-Mar-22 16:18N 34°39' E 135°28'0 0.0
2017-Mar-22 14:11N 34°39' E 135°28'3 5.4
2017-Mar-22 13:34N 34°39' E 135°24'2 2.0
2017-Mar-22 12:33N 34°39' E 135°26'1 0.3
2017-Mar-22 08:26N 34°39' E 135°28'3 3.8
2017-Mar-22 07:34N 34°39' E 135°24'3 1.6
2017-Mar-22 05:34N 34°39' E 135°28'1 0.1
2017-Mar-21 23:34N 34°39' E 135°27'1 1.2
2017-Mar-21 22:33N 34°39' E 135°26'1 0.9
2017-Mar-21 21:34N 34°39' E 135°24'3 2.9
2017-Mar-21 20:33N 34°39' E 135°28'0 0.0
2017-Mar-21 19:33N 34°39' E 135°28'0 0.0
2017-Mar-21 18:33N 34°39' E 135°28'0 0.0
2017-Mar-21 17:33N 34°39' E 135°28'0 0.0
2017-Mar-21 16:34N 34°39' E 135°28'0 0.0
2017-Mar-21 15:33N 34°39' E 135°28'0 0.0
2017-Mar-21 14:33N 34°39' E 135°28'0 0.0
2017-Mar-21 13:33N 34°39' E 135°28'0 0.0
2017-Mar-21 12:33N 34°39' E 135°28'0 0.0
2017-Mar-21 11:32N 34°39' E 135°28'0 0.0
2017-Mar-21 10:33N 34°39' E 135°28'0 0.0
2017-Mar-21 09:33N 34°39' E 135°28'4 3.5
2017-Mar-21 08:34N 34°38' E 135°24'1 0.5
2017-Mar-21 07:33N 34°39' E 135°24'3 2.6
2017-Mar-21 06:33N 34°40' E 135°27'0 0.2
2017-Mar-21 05:33N 34°40' E 135°27'1 1.3
2017-Mar-21 04:34N 34°39' E 135°26'0 0.0
2017-Mar-21 03:33N 34°39' E 135°26'0 0.0
2017-Mar-21 02:33N 34°39' E 135°26'0 0.0
2017-Mar-21 01:33N 34°39' E 135°26'2 1.7
2017-Mar-21 00:33N 34°38' E 135°24'1 1.3
2017-Mar-20 23:34N 34°40' E 135°24'0 0.0
2017-Mar-20 22:34N 34°40' E 135°24'0 0.0
2017-Mar-20 21:31N 34°40' E 135°24'1 0.8
2017-Mar-20 20:34N 34°39' E 135°24'  
Track history (hours):
 
Tides and Currents Weather Stations Pressure Air Temp Water Temp Dewpoint Dewpoint Depression Visibility Wind Speed Wind Dir Waves Ship Positions

No 31 Takemaru

Last reported at 2017-Mar-30 17:33 UTC. Time now 2017-Mar-30 18:30 UTC.
Position N 34°39' E 135°28'.

Length 31 m; draft 2.5 m.

Type: Tug. MMSI: 431000439.

Date/timePositionNaut miles runAvg speedWind from/ knotsBaromVisibWave heightAir tempDewpointWater temp
2017-Mar-30 17:33N 34°39' E 135°28'0 0.0
2017-Mar-30 16:34N 34°39' E 135°28'0 0.0
2017-Mar-30 15:32N 34°39' E 135°28'0 0.0
2017-Mar-30 14:32N 34°39' E 135°28'0 0.0
2017-Mar-30 11:15N 34°39' E 135°28'3 4.5
2017-Mar-30 10:33N 34°39' E 135°24'0 0.1
2017-Mar-30 09:34N 34°39' E 135°24'3 1.5
2017-Mar-30 07:22N 34°39' E 135°28'0 0.0
2017-Mar-30 01:24N 34°39' E 135°28'2 2.8
2017-Mar-30 00:33N 34°39' E 135°25'2 1.9
2017-Mar-29 23:34N 34°38' E 135°23'2 1.8
2017-Mar-29 22:34N 34°40' E 135°24'0 0.0
2017-Mar-29 21:33N 34°40' E 135°24'1 0.6
2017-Mar-29 20:33N 34°39' E 135°25'3 0.7
2017-Mar-29 16:27N 34°39' E 135°28'0 0.0
2017-Mar-29 15:33N 34°39' E 135°28'0 0.0
2017-Mar-29 12:14N 34°39' E 135°28'0 0.0
2017-Mar-29 11:19N 34°39' E 135°28'0 0.0
2017-Mar-29 10:34N 34°39' E 135°28'0 0.0
2017-Mar-29 09:25N 34°39' E 135°28'0 0.0
2017-Mar-29 08:30N 34°39' E 135°28'0 0.0
2017-Mar-29 07:33N 34°39' E 135°28'0 0.0
2017-Mar-29 06:33N 34°39' E 135°28'0 0.0
2017-Mar-29 05:31N 34°39' E 135°28'0 0.0
2017-Mar-29 04:22N 34°39' E 135°28'0 0.0
2017-Mar-29 00:29N 34°39' E 135°28'3 3.0
2017-Mar-28 23:33N 34°39' E 135°24'2 1.8
2017-Mar-28 22:33N 34°38' E 135°27'2 1.9
2017-Mar-28 21:33N 34°39' E 135°24'3 2.9
2017-Mar-28 20:34N 34°39' E 135°28'0 0.0
2017-Mar-28 19:34N 34°39' E 135°28'0 0.0
2017-Mar-28 18:33N 34°39' E 135°28'0 0.0
2017-Mar-28 17:33N 34°39' E 135°28'0 0.0
2017-Mar-28 16:34N 34°39' E 135°28'2 2.0
2017-Mar-28 15:33N 34°39' E 135°26'2 0.7
2017-Mar-28 12:33N 34°39' E 135°28'0 0.0
2017-Mar-28 11:33N 34°39' E 135°28'0 0.0
2017-Mar-28 10:33N 34°39' E 135°28'0 0.0
2017-Mar-28 09:12N 34°39' E 135°28'0 0.0
2017-Mar-28 08:21N 34°39' E 135°28'1 0.1
2017-Mar-28 01:33N 34°39' E 135°27'1 0.7
2017-Mar-28 00:33N 34°38' E 135°27'0 0.2
2017-Mar-27 23:33N 34°38' E 135°27'2 1.7
2017-Mar-27 22:33N 34°39' E 135°25'1 1.4
2017-Mar-27 21:33N 34°39' E 135°27'1 0.9
2017-Mar-27 20:28N 34°39' E 135°28'0 0.0
2017-Mar-27 19:30N 34°39' E 135°28'0 0.0
2017-Mar-27 18:33N 34°39' E 135°28'0 0.0
2017-Mar-27 17:31N 34°39' E 135°28'0 0.0
2017-Mar-27 14:17N 34°39' E 135°28'0 0.0
2017-Mar-27 13:33N 34°39' E 135°28'0 0.0
2017-Mar-27 12:31N 34°39' E 135°28'0 0.0
2017-Mar-27 11:33N 34°39' E 135°28'0 0.0
2017-Mar-27 10:33N 34°39' E 135°28'0 0.0
2017-Mar-27 08:32N 34°39' E 135°28'2 1.8
2017-Mar-27 07:33N 34°39' E 135°26'2 2.4
2017-Mar-27 06:33N 34°37' E 135°24'4 0.6
2017-Mar-27 00:21N 34°39' E 135°28'0 0.0
2017-Mar-26 23:33N 34°39' E 135°28'3 2.9
2017-Mar-26 22:33N 34°38' E 135°25'1 0.7
2017-Mar-26 21:33N 34°38' E 135°24'4 3.5
2017-Mar-26 20:34N 34°39' E 135°28'0 0.0
2017-Mar-26 19:27N 34°39' E 135°28'0 0.0
2017-Mar-26 18:32N 34°39' E 135°28'0 0.0
2017-Mar-26 15:27N 34°39' E 135°28'0 0.0
2017-Mar-26 13:08N 34°39' E 135°28'0 0.0
2017-Mar-26 12:33N 34°39' E 135°28'0 0.0
2017-Mar-26 11:33N 34°39' E 135°28'0 0.0
2017-Mar-26 10:31N 34°39' E 135°28'0 0.0
2017-Mar-26 09:28N 34°39' E 135°28'0 0.0
2017-Mar-26 08:33N 34°39' E 135°28'0 0.0
2017-Mar-26 07:27N 34°39' E 135°28'0 0.0
2017-Mar-26 05:11N 34°39' E 135°28'3 4.5
2017-Mar-26 04:33N 34°38' E 135°25'2 1.8
2017-Mar-26 03:33N 34°38' E 135°23'4 1.1
2017-Mar-25 23:27N 34°39' E 135°28'0 0.0
2017-Mar-25 22:32N 34°39' E 135°28'0 0.0
2017-Mar-25 21:33N 34°39' E 135°28'0 0.0
2017-Mar-25 20:31N 34°39' E 135°28'0 0.0
2017-Mar-25 19:30N 34°39' E 135°28'0 0.0
2017-Mar-25 18:27N 34°39' E 135°28'0 0.0
2017-Mar-25 17:33N 34°39' E 135°28'0 0.0
2017-Mar-25 12:09N 34°39' E 135°28'0 0.0
2017-Mar-25 11:32N 34°39' E 135°28'0 0.0
2017-Mar-25 10:32N 34°39' E 135°28'0 0.0
2017-Mar-25 09:34N 34°39' E 135°28'0 0.0
2017-Mar-25 08:31N 34°39' E 135°28'0 0.0
2017-Mar-25 07:33N 34°39' E 135°28'0 0.0
2017-Mar-25 05:20N 34°39' E 135°28'0 0.0
2017-Mar-25 04:26N 34°39' E 135°28'0 0.0
2017-Mar-25 03:25N 34°39' E 135°28'0 0.0
2017-Mar-25 01:32N 34°39' E 135°28'3 2.9
2017-Mar-25 00:34N 34°40' E 135°25'0 0.4
2017-Mar-24 23:33N 34°40' E 135°24'0 0.0
2017-Mar-24 22:33N 34°40' E 135°24'1 0.7
2017-Mar-24 21:33N 34°39' E 135°24'1 1.4
2017-Mar-24 20:33N 34°39' E 135°26'2 1.6
2017-Mar-24 19:28N 34°39' E 135°28'0 0.0
2017-Mar-24 18:23N 34°39' E 135°28'0 0.0
2017-Mar-24 16:25N 34°39' E 135°28'0 0.0
2017-Mar-24 15:34N 34°39' E 135°28'0 0.0
2017-Mar-24 14:26N 34°39' E 135°28'0 0.0
2017-Mar-24 13:17N 34°39' E 135°28'0 0.0
2017-Mar-24 12:14N 34°39' E 135°28'3 4.7
2017-Mar-24 11:33N 34°39' E 135°24'3 0.6
2017-Mar-24 06:16N 34°39' E 135°28'2 2.5
2017-Mar-24 05:33N 34°39' E 135°26'2 0.5
2017-Mar-24 01:30N 34°39' E 135°28'0 0.0
2017-Mar-24 00:31N 34°39' E 135°28'0 0.0
2017-Mar-23 23:33N 34°39' E 135°28'3 2.8
2017-Mar-23 22:33N 34°38' E 135°25'1 1.0
2017-Mar-23 21:34N 34°38' E 135°23'4 3.8
2017-Mar-23 20:34N 34°39' E 135°28'0 0.0
2017-Mar-23 19:33N 34°39' E 135°28'0 0.0
2017-Mar-23 18:23N 34°39' E 135°28'0 0.0
2017-Mar-23 17:33N 34°39' E 135°28'0 0.0
2017-Mar-23 16:33N 34°39' E 135°28'0 0.0
2017-Mar-23 15:33N 34°39' E 135°28'0 0.0
2017-Mar-23 14:27N 34°39' E 135°28'0 0.0
2017-Mar-23 13:08N 34°39' E 135°28'0 0.0
2017-Mar-23 12:34N 34°39' E 135°28'0 0.0
2017-Mar-23 11:31N 34°39' E 135°28'0 0.0
2017-Mar-23 10:33N 34°39' E 135°28'0 0.0
2017-Mar-23 09:33N 34°39' E 135°28'0 0.0
2017-Mar-23 08:20N 34°39' E 135°28'0 0.0
2017-Mar-23 07:15N 34°39' E 135°28'1 2.1
2017-Mar-23 06:33N 34°39' E 135°26'1 0.2
2017-Mar-22 23:25N 34°39' E 135°28'0 0.0
2017-Mar-22 22:26N 34°39' E 135°28'0 0.6
2017-Mar-22 21:33N 34°39' E 135°27'3 2.6
2017-Mar-22 20:33N 34°39' E 135°24'3 1.4
2017-Mar-22 18:21N 34°39' E 135°28'0 0.0
2017-Mar-22 16:18N 34°39' E 135°28'0 0.0
2017-Mar-22 14:11N 34°39' E 135°28'3 5.4
2017-Mar-22 13:34N 34°39' E 135°24'2 2.0
2017-Mar-22 12:33N 34°39' E 135°26'1 0.3
2017-Mar-22 08:26N 34°39' E 135°28'3 3.8
2017-Mar-22 07:34N 34°39' E 135°24'3 1.6
2017-Mar-22 05:34N 34°39' E 135°28'1 0.1
2017-Mar-21 23:34N 34°39' E 135°27'1 1.2
2017-Mar-21 22:33N 34°39' E 135°26'1 0.9
2017-Mar-21 21:34N 34°39' E 135°24'3 2.9
2017-Mar-21 20:33N 34°39' E 135°28'0 0.0
2017-Mar-21 19:33N 34°39' E 135°28'0 0.0
2017-Mar-21 18:33N 34°39' E 135°28'0 0.0
2017-Mar-21 17:33N 34°39' E 135°28'0 0.0
2017-Mar-21 16:34N 34°39' E 135°28'0 0.0
2017-Mar-21 15:33N 34°39' E 135°28'0 0.0
2017-Mar-21 14:33N 34°39' E 135°28'0 0.0
2017-Mar-21 13:33N 34°39' E 135°28'0 0.0
2017-Mar-21 12:33N 34°39' E 135°28'0 0.0
2017-Mar-21 11:32N 34°39' E 135°28'0 0.0
2017-Mar-21 10:33N 34°39' E 135°28'0 0.0
2017-Mar-21 09:33N 34°39' E 135°28'4 3.5
2017-Mar-21 08:34N 34°38' E 135°24'1 0.5
2017-Mar-21 07:33N 34°39' E 135°24'3 2.6
2017-Mar-21 06:33N 34°40' E 135°27'0 0.2
2017-Mar-21 05:33N 34°40' E 135°27'1 1.3
2017-Mar-21 04:34N 34°39' E 135°26'0 0.0
2017-Mar-21 03:33N 34°39' E 135°26'0 0.0
2017-Mar-21 02:33N 34°39' E 135°26'0 0.0
2017-Mar-21 01:33N 34°39' E 135°26'2 1.7
2017-Mar-21 00:33N 34°38' E 135°24'1 1.3
2017-Mar-20 23:34N 34°40' E 135°24'0 0.0
2017-Mar-20 22:34N 34°40' E 135°24'0 0.0
2017-Mar-20 21:31N 34°40' E 135°24'1 0.8
2017-Mar-20 20:34N 34°39' E 135°24'  

Dump ship's entire track history